Archer, Florida
Current Conditions -  °F | °C
As of 9:53 PM on Saturday 20 Dec 2014 (Local Time) from KGNV Reporting Station
Moderate Rain Moderate Rain  
Wind Chill: 58°   Ceiling: 7500
Heat Index: 58°   Visibility: 7mi
Dew Point: 55°   Wind: 7mph
Humidity: 90%   Direction: 60°ENE
Pressure: 30.12"   Gusts: NA
Location:  29.53°N, 82.52°W
Report Text: KGNV 210253Z 06006KT 7SM RA FEW023 OVC075 14/13 A3012 RMK AO2 RAB30 SLP199 P0001 60001 T01440128 51009
Loading
Personal Weather Stations






























Interactive Weather Map New forecast layout! Learn more

10-Day Weather Forecast

Advertisements
Track Severe Weather on mobile